Time;durP1;ratioP1;P1;durP2;ratioP2;P2;SDS_P1;SDS_P2;PMS_P1;PMS_P2;Temp;Humidity;BMP_temperature;BMP_pressure;BME280_temperature;BME280_humidity;BME280_pressure;Samples;Min_cycle;Max_cycle;Signal;HPM_P1;HPM_P2
2022/08/14 00:00:09;;;;;;;6.63;3.83;;;;;;;;;;5082509;28;20052;-66
2022/08/14 00:02:35;;;;;;;8.68;3.55;;;;;;;;;;5060913;28;20044;-66
2022/08/14 00:05:01;;;;;;;6.40;4.07;;;;;;;;;;5060285;28;20506;-66
2022/08/14 00:07:27;;;;;;;7.65;4.07;;;;;;;;;;5080404;28;20082;-66
2022/08/14 00:09:54;;;;;;;6.97;3.45;;;;;;;;;;5059246;28;20071;-66
2022/08/14 00:12:20;;;;;;;7.70;4.25;;;;;;;;;;5041660;28;20047;-66
2022/08/14 00:14:47;;;;;;;9.52;3.90;;;;;;;;;;5079512;28;20329;-66
2022/08/14 00:17:13;;;;;;;6.18;3.97;;;;;;;;;;5079818;28;20056;-66
2022/08/14 00:19:39;;;;;;;9.88;4.47;;;;;;;;;;5045604;28;20055;-66
2022/08/14 00:22:05;;;;;;;6.32;4.10;;;;;;;;;;5059941;28;20504;-66
2022/08/14 00:24:32;;;;;;;9.93;4.05;;;;;;;;;;5062215;28;20059;-66
2022/08/14 00:26:58;;;;;;;9.27;4.28;;;;;;;;;;5079266;28;20051;-66
2022/08/14 00:29:24;;;;;;;6.80;4.25;;;;;;;;;;5076048;28;20051;-66
2022/08/14 00:31:51;;;;;;;7.68;4.50;;;;;;;;;;5069730;28;20067;-66
2022/08/14 00:34:17;;;;;;;9.82;5.00;;;;;;;;;;5074345;28;20040;-66
2022/08/14 00:36:43;;;;;;;7.57;4.93;;;;;;;;;;5054816;28;20052;-66
2022/08/14 00:39:12;;;;;;;9.60;5.55;;;;;;;;;;5062627;28;20055;-66
2022/08/14 00:41:38;;;;;;;9.50;5.78;;;;;;;;;;5061054;28;20048;-66
2022/08/14 00:44:04;;;;;;;6.88;5.13;;;;;;;;;;5059590;28;20048;-66
2022/08/14 00:46:30;;;;;;;8.25;5.40;;;;;;;;;;5079868;28;20036;-66
2022/08/14 00:48:56;;;;;;;8.18;4.68;;;;;;;;;;5058396;28;20063;-66
2022/08/14 00:51:23;;;;;;;15.35;5.70;;;;;;;;;;5080793;28;20047;-66
2022/08/14 00:53:49;;;;;;;9.32;5.47;;;;;;;;;;5059544;28;20079;-66
2022/08/14 00:56:17;;;;;;;11.55;5.93;;;;;;;;;;5080852;28;21529;-66
2022/08/14 00:58:45;;;;;;;10.98;5.45;;;;;;;;;;5078262;28;20123;-66
2022/08/14 01:01:13;;;;;;;8.52;6.20;;;;;;;;;;5077699;28;20143;-66
2022/08/14 01:03:40;;;;;;;9.07;5.90;;;;;;;;;;5059897;28;20087;-66
2022/08/14 01:06:07;;;;;;;8.32;5.50;;;;;;;;;;5053129;28;20044;-66
2022/08/14 01:08:34;;;;;;;9.15;5.97;;;;;;;;;;5079620;28;20050;-66
2022/08/14 01:11:00;;;;;;;10.52;5.82;;;;;;;;;;5077955;28;20064;-66
2022/08/14 01:13:28;;;;;;;13.48;6.82;;;;;;;;;;5080558;28;20106;-66
2022/08/14 01:15:56;;;;;;;9.63;6.13;;;;;;;;;;5059189;28;20044;-66
2022/08/14 01:21:10;;;;;;;9.23;6.63;;;;;;;;;;5068071;28;20055;-66
2022/08/14 01:23:38;;;;;;;8.13;6.78;;;;;;;;;;5078737;28;20056;-66
2022/08/14 01:26:04;;;;;;;8.05;6.47;;;;;;;;;;5078310;28;20044;-66
2022/08/14 01:28:36;;;;;;;10.27;6.38;;;;;;;;;;5080661;28;20040;-66
2022/08/14 01:31:11;;;;;;;12.18;6.63;;;;;;;;;;5077789;28;20040;-66
2022/08/14 01:33:39;;;;;;;10.00;7.30;;;;;;;;;;5058996;28;20114;-66
2022/08/14 01:36:06;;;;;;;12.80;7.13;;;;;;;;;;5078828;28;20109;-66
2022/08/14 01:38:33;;;;;;;9.68;7.45;;;;;;;;;;5080078;28;20127;-66
2022/08/14 01:41:01;;;;;;;9.57;7.00;;;;;;;;;;5076174;28;20163;-66
2022/08/14 01:43:29;;;;;;;12.45;7.18;;;;;;;;;;5076809;28;20128;-66
2022/08/14 01:45:59;;;;;;;11.90;6.97;;;;;;;;;;5078351;28;20044;-66
2022/08/14 01:48:29;;;;;;;10.88;6.80;;;;;;;;;;5079161;28;20060;-66
2022/08/14 01:50:56;;;;;;;10.40;7.00;;;;;;;;;;5060685;28;20047;-66
2022/08/14 01:53:22;;;;;;;12.38;6.68;;;;;;;;;;5079211;28;20059;-66
2022/08/14 01:55:50;;;;;;;10.05;7.30;;;;;;;;;;5079932;28;20172;-66
2022/08/14 01:58:17;;;;;;;12.00;7.28;;;;;;;;;;5042373;28;20131;-66
2022/08/14 02:00:43;;;;;;;15.25;7.07;;;;;;;;;;5059789;28;20059;-66
2022/08/14 02:03:10;;;;;;;8.85;6.93;;;;;;;;;;5077780;28;20116;-66
2022/08/14 02:05:36;;;;;;;13.63;8.40;;;;;;;;;;5074491;28;20146;-66
2022/08/14 02:08:02;;;;;;;14.23;7.70;;;;;;;;;;5076384;28;20471;-66
2022/08/14 02:10:28;;;;;;;10.95;8.07;;;;;;;;;;5080670;28;20054;-66
2022/08/14 02:12:56;;;;;;;12.60;8.43;;;;;;;;;;5078512;28;20704;-66
2022/08/14 02:15:22;;;;;;;10.95;7.95;;;;;;;;;;5077304;28;20043;-66
2022/08/14 02:17:49;;;;;;;10.50;7.47;;;;;;;;;;5078768;28;20047;-66
2022/08/14 02:20:16;;;;;;;9.77;7.45;;;;;;;;;;5075077;28;20080;-66
2022/08/14 02:22:42;;;;;;;11.23;7.70;;;;;;;;;;5079699;28;20435;-66
2022/08/14 02:25:09;;;;;;;10.40;8.02;;;;;;;;;;5059268;28;20654;-66
2022/08/14 02:27:36;;;;;;;14.93;8.48;;;;;;;;;;5075344;28;20483;-66
2022/08/14 02:30:03;;;;;;;10.57;7.65;;;;;;;;;;5074634;28;20035;-66
2022/08/14 02:32:30;;;;;;;13.52;8.98;;;;;;;;;;5061010;28;20085;-66
2022/08/14 02:34:56;;;;;;;11.95;8.02;;;;;;;;;;5074628;28;20052;-66
2022/08/14 02:37:23;;;;;;;9.52;7.45;;;;;;;;;;5079380;28;20058;-66
2022/08/14 02:39:49;;;;;;;10.70;8.73;;;;;;;;;;5074128;28;20142;-66
2022/08/14 02:42:20;;;;;;;11.32;8.85;;;;;;;;;;5059765;28;20055;-66
2022/08/14 02:44:46;;;;;;;12.40;9.68;;;;;;;;;;5070876;28;20128;-66
2022/08/14 02:47:12;;;;;;;10.25;8.77;;;;;;;;;;5073386;28;20079;-66
2022/08/14 02:49:38;;;;;;;17.00;9.40;;;;;;;;;;5079125;28;20142;-66
2022/08/14 02:52:06;;;;;;;13.40;9.23;;;;;;;;;;5056655;28;20043;-66
2022/08/14 02:54:33;;;;;;;10.32;9.23;;;;;;;;;;5077145;28;20048;-66
2022/08/14 02:56:59;;;;;;;14.15;9.38;;;;;;;;;;5076022;28;20115;-66
2022/08/14 02:59:28;;;;;;;13.48;9.80;;;;;;;;;;5076615;28;20044;-66
2022/08/14 03:01:56;;;;;;;12.95;9.25;;;;;;;;;;5059493;28;20079;-66
2022/08/14 03:04:22;;;;;;;12.80;8.57;;;;;;;;;;5076146;28;20076;-66
2022/08/14 03:06:49;;;;;;;13.65;8.82;;;;;;;;;;5058905;28;20044;-66
2022/08/14 03:09:15;;;;;;;14.70;9.38;;;;;;;;;;5079369;28;20483;-66
2022/08/14 03:11:43;;;;;;;11.98;9.20;;;;;;;;;;5075765;28;20052;-66
2022/08/14 03:14:10;;;;;;;15.15;10.10;;;;;;;;;;5078294;28;20077;-66
2022/08/14 03:16:37;;;;;;;13.02;9.63;;;;;;;;;;5076403;28;20130;-66
2022/08/14 03:19:05;;;;;;;12.50;9.25;;;;;;;;;;5077119;28;20067;-66
2022/08/14 03:21:32;;;;;;;16.35;9.43;;;;;;;;;;5060552;28;20149;-66
2022/08/14 03:24:10;;;;;;;13.13;10.07;;;;;;;;;;5058713;28;20051;-66
2022/08/14 03:26:38;;;;;;;14.07;10.63;;;;;;;;;;5079110;28;20455;-66
2022/08/14 03:29:05;;;;;;;11.32;9.77;;;;;;;;;;5075472;28;20052;-66
2022/08/14 03:31:31;;;;;;;15.95;10.80;;;;;;;;;;5063183;28;20036;-66
2022/08/14 03:33:58;;;;;;;13.95;9.70;;;;;;;;;;5081172;28;20044;-66
2022/08/14 03:36:24;;;;;;;15.13;9.85;;;;;;;;;;5082507;28;20073;-66
2022/08/14 03:38:54;;;;;;;12.32;10.85;;;;;;;;;;5081189;28;20419;-66
2022/08/14 03:41:22;;;;;;;15.02;10.75;;;;;;;;;;5077710;28;20044;-66
2022/08/14 03:43:50;;;;;;;17.50;9.98;;;;;;;;;;5080771;28;20098;-66
2022/08/14 03:46:17;;;;;;;11.50;9.43;;;;;;;;;;5080407;28;20155;-66
2022/08/14 03:48:44;;;;;;;12.13;9.63;;;;;;;;;;5060325;28;20048;-66
2022/08/14 03:51:12;;;;;;;17.42;9.68;;;;;;;;;;5078998;28;20040;-66
2022/08/14 03:53:41;;;;;;;12.75;9.77;;;;;;;;;;5044847;28;20044;-66
2022/08/14 03:56:13;;;;;;;11.63;9.68;;;;;;;;;;5059964;28;20060;-66
2022/08/14 03:58:41;;;;;;;11.27;9.77;;;;;;;;;;5046620;28;20138;-66
2022/08/14 04:01:07;;;;;;;18.02;10.30;;;;;;;;;;5076316;28;20036;-66
2022/08/14 04:03:34;;;;;;;13.85;10.43;;;;;;;;;;5080552;28;20056;-66
2022/08/14 04:06:01;;;;;;;17.65;10.98;;;;;;;;;;5083108;28;20055;-66
2022/08/14 04:08:28;;;;;;;15.70;11.07;;;;;;;;;;5058807;28;20063;-66
2022/08/14 04:10:56;;;;;;;15.63;10.20;;;;;;;;;;5059895;28;20044;-66
2022/08/14 04:13:22;;;;;;;13.55;10.27;;;;;;;;;;5078837;28;20072;-66
2022/08/14 04:15:48;;;;;;;13.57;10.60;;;;;;;;;;5082306;28;20554;-66
2022/08/14 04:18:14;;;;;;;15.13;10.18;;;;;;;;;;5079892;28;20040;-66
2022/08/14 04:20:41;;;;;;;12.07;10.00;;;;;;;;;;5061935;28;20917;-66
2022/08/14 04:23:09;;;;;;;14.20;9.52;;;;;;;;;;5062038;28;20041;-66
2022/08/14 04:25:36;;;;;;;13.63;10.00;;;;;;;;;;5062170;28;20079;-66
2022/08/14 04:28:05;;;;;;;14.32;10.85;;;;;;;;;;5077605;28;20098;-66
2022/08/14 04:30:32;;;;;;;14.73;11.27;;;;;;;;;;5074954;28;20076;-66
2022/08/14 04:32:58;;;;;;;14.82;10.48;;;;;;;;;;5056359;28;20071;-66
2022/08/14 04:35:24;;;;;;;13.52;10.98;;;;;;;;;;5075529;28;20047;-66
2022/08/14 04:43:36;;;;;;;17.52;10.90;;;;;;;;;;5076616;28;20045;-66
2022/08/14 04:46:04;;;;;;;13.88;10.75;;;;;;;;;;5075454;28;20102;-66
2022/08/14 04:48:30;;;;;;;14.05;10.95;;;;;;;;;;5074617;28;20221;-66
2022/08/14 04:50:56;;;;;;;14.30;11.73;;;;;;;;;;5077455;28;20043;-66
2022/08/14 04:53:25;;;;;;;11.65;10.43;;;;;;;;;;5079587;28;20119;-66
2022/08/14 04:55:51;;;;;;;11.73;10.52;;;;;;;;;;5078461;28;20040;-66
2022/08/14 04:58:18;;;;;;;13.25;11.80;;;;;;;;;;5076040;28;20123;-66
2022/08/14 05:00:49;;;;;;;11.77;10.50;;;;;;;;;;5076888;28;20502;-66
2022/08/14 05:03:15;;;;;;;12.73;10.48;;;;;;;;;;5055143;28;20051;-66
2022/08/14 05:05:42;;;;;;;20.15;12.00;;;;;;;;;;5056425;28;20052;-66
2022/08/14 05:08:11;;;;;;;13.90;9.88;;;;;;;;;;5058947;28;20245;-66
2022/08/14 05:10:42;;;;;;;13.85;10.48;;;;;;;;;;5063336;28;21093;-66
2022/08/14 05:13:08;;;;;;;15.75;10.20;;;;;;;;;;5081283;28;20139;-66
2022/08/14 05:15:35;;;;;;;16.98;10.05;;;;;;;;;;5079256;28;20435;-66
2022/08/14 05:18:03;;;;;;;13.73;9.98;;;;;;;;;;5077392;28;20043;-69
2022/08/14 05:20:29;;;;;;;13.27;9.95;;;;;;;;;;5081367;28;20051;-66
2022/08/14 05:22:58;;;;;;;16.35;9.52;;;;;;;;;;5084269;28;20498;-66
2022/08/14 05:25:24;;;;;;;12.38;8.88;;;;;;;;;;5082297;28;20040;-66
2022/08/14 05:27:50;;;;;;;13.23;10.23;;;;;;;;;;5064186;28;20044;-66
2022/08/14 05:30:18;;;;;;;13.45;9.27;;;;;;;;;;5074664;28;20205;-66
2022/08/14 05:32:45;;;;;;;14.73;9.45;;;;;;;;;;5059033;28;20122;-66
2022/08/14 05:35:11;;;;;;;15.13;10.45;;;;;;;;;;5077274;28;20479;-66
2022/08/14 05:37:39;;;;;;;16.10;10.38;;;;;;;;;;5081054;28;20532;-66
2022/08/14 05:40:09;;;;;;;10.30;9.20;;;;;;;;;;5082995;28;20040;-66
2022/08/14 05:42:35;;;;;;;12.30;9.02;;;;;;;;;;5062346;28;20036;-65
2022/08/14 05:45:03;;;;;;;12.00;9.43;;;;;;;;;;5083688;28;20047;-65
2022/08/14 05:47:29;;;;;;;12.55;9.50;;;;;;;;;;5065498;28;20143;-66
2022/08/14 05:49:57;;;;;;;10.60;8.60;;;;;;;;;;5078299;28;20044;-65
2022/08/14 05:52:23;;;;;;;12.25;8.82;;;;;;;;;;5081405;28;20119;-65
2022/08/14 05:54:49;;;;;;;12.43;9.40;;;;;;;;;;5080014;28;20067;-65
2022/08/14 05:57:15;;;;;;;13.20;9.07;;;;;;;;;;5058373;28;20071;-66
2022/08/14 05:59:42;;;;;;;12.68;9.63;;;;;;;;;;5076469;28;20059;-65
2022/08/14 06:02:09;;;;;;;12.15;9.65;;;;;;;;;;5077963;28;20090;-65
2022/08/14 06:04:35;;;;;;;11.05;8.98;;;;;;;;;;5060239;28;20052;-65
2022/08/14 06:07:01;;;;;;;13.85;9.70;;;;;;;;;;5075464;28;20129;-65
2022/08/14 06:09:27;;;;;;;11.57;9.45;;;;;;;;;;5057394;28;20075;-65
2022/08/14 06:11:53;;;;;;;12.48;10.05;;;;;;;;;;5059178;28;20659;-65
2022/08/14 06:14:30;;;;;;;11.82;8.73;;;;;;;;;;5098586;27;20518;-64
2022/08/14 06:16:56;;;;;;;13.77;9.93;;;;;;;;;;5095207;28;20052;-65
2022/08/14 06:19:22;;;;;;;12.10;9.25;;;;;;;;;;5089142;28;20048;-64
2022/08/14 06:21:48;;;;;;;12.15;8.55;;;;;;;;;;5112675;27;20048;-64
2022/08/14 06:24:14;;;;;;;13.20;8.32;;;;;;;;;;5076812;28;20362;-64
2022/08/14 06:26:40;;;;;;;9.57;8.32;;;;;;;;;;5092628;28;20126;-64
2022/08/14 06:29:07;;;;;;;14.18;8.77;;;;;;;;;;5089969;28;20040;-64
2022/08/14 06:31:33;;;;;;;11.15;8.80;;;;;;;;;;5091963;28;20048;-64
2022/08/14 06:33:59;;;;;;;10.18;8.40;;;;;;;;;;5100244;28;20047;-64
2022/08/14 06:36:25;;;;;;;12.90;9.10;;;;;;;;;;5098814;28;20122;-64
2022/08/14 06:38:52;;;;;;;12.82;9.27;;;;;;;;;;5091240;28;20050;-65
2022/08/14 06:41:18;;;;;;;12.07;8.93;;;;;;;;;;5096724;28;20048;-65
2022/08/14 06:43:44;;;;;;;10.63;8.88;;;;;;;;;;5099119;28;20040;-65
2022/08/14 06:46:11;;;;;;;13.07;8.00;;;;;;;;;;5098885;28;20435;-65
2022/08/14 06:48:37;;;;;;;11.20;8.73;;;;;;;;;;5102739;28;20040;-64
2022/08/14 06:51:03;;;;;;;15.23;8.07;;;;;;;;;;5100684;28;20043;-64
2022/08/14 06:53:29;;;;;;;14.00;8.35;;;;;;;;;;5098256;28;20453;-65
2022/08/14 06:55:56;;;;;;;13.32;8.30;;;;;;;;;;5089285;28;20044;-64
2022/08/14 06:58:22;;;;;;;14.32;8.30;;;;;;;;;;5082093;28;20200;-70
2022/08/14 07:06:32;;;;;;;9.82;8.15;;;;;;;;;;5092082;28;20043;-65
2022/08/14 07:08:58;;;;;;;12.43;7.90;;;;;;;;;;5089328;28;20052;-65
2022/08/14 07:11:24;;;;;;;10.70;8.38;;;;;;;;;;5087053;28;20062;-65
2022/08/14 07:13:51;;;;;;;10.90;8.20;;;;;;;;;;5100399;28;20063;-65
2022/08/14 07:16:17;;;;;;;15.27;7.30;;;;;;;;;;5100473;28;20136;-65
2022/08/14 07:18:44;;;;;;;9.23;8.23;;;;;;;;;;5110426;28;20036;-65
2022/08/14 07:21:10;;;;;;;9.10;7.20;;;;;;;;;;5116134;27;20124;-64
2022/08/14 07:23:37;;;;;;;13.43;8.07;;;;;;;;;;5105583;28;20051;-65
2022/08/14 07:26:04;;;;;;;13.32;8.32;;;;;;;;;;5090803;28;20044;-65
2022/08/14 07:28:33;;;;;;;11.25;8.13;;;;;;;;;;5091344;28;20051;-65
2022/08/14 07:31:00;;;;;;;11.52;8.13;;;;;;;;;;5086607;28;20158;-65
2022/08/14 07:33:27;;;;;;;12.55;8.32;;;;;;;;;;5079966;28;20501;-65
2022/08/14 07:35:54;;;;;;;9.88;7.60;;;;;;;;;;5081979;28;20039;-65
2022/08/14 07:38:21;;;;;;;9.32;7.97;;;;;;;;;;5083400;28;20041;-65
2022/08/14 07:40:48;;;;;;;13.57;8.32;;;;;;;;;;5085881;28;20044;-65
2022/08/14 07:43:15;;;;;;;12.82;8.07;;;;;;;;;;5081730;28;20517;-65
2022/08/14 07:45:41;;;;;;;11.00;8.73;;;;;;;;;;5102108;27;20058;-65
2022/08/14 07:48:07;;;;;;;11.85;7.72;;;;;;;;;;5104556;27;20070;-65
2022/08/14 07:50:34;;;;;;;9.95;7.15;;;;;;;;;;5070811;28;20071;-64
2022/08/14 07:53:00;;;;;;;14.18;6.88;;;;;;;;;;5085872;28;20153;-65
2022/08/14 07:55:27;;;;;;;12.05;7.72;;;;;;;;;;5085850;28;20052;-65
2022/08/14 07:57:53;;;;;;;11.70;7.82;;;;;;;;;;5082379;28;20082;-65
2022/08/14 08:00:21;;;;;;;9.48;7.45;;;;;;;;;;5082694;28;20413;-65
2022/08/14 08:02:53;;;;;;;14.48;7.00;;;;;;;;;;5085653;28;20044;-64
2022/08/14 08:05:23;;;;;;;9.95;6.88;;;;;;;;;;5082409;28;20074;-65
2022/08/14 08:07:49;;;;;;;7.97;6.82;;;;;;;;;;5086408;28;20047;-65
2022/08/14 08:10:30;;;;;;;11.63;6.80;;;;;;;;;;5082808;28;20119;-64
2022/08/14 08:13:02;;;;;;;8.77;6.25;;;;;;;;;;5080861;28;20052;-64
2022/08/14 08:15:31;;;;;;;10.55;6.70;;;;;;;;;;5083310;28;20052;-64
2022/08/14 08:17:58;;;;;;;10.73;6.82;;;;;;;;;;5081960;28;20070;-64
2022/08/14 08:20:25;;;;;;;8.77;6.10;;;;;;;;;;5087136;28;20040;-64
2022/08/14 08:22:55;;;;;;;9.20;7.20;;;;;;;;;;5081235;28;20059;-64
2022/08/14 08:25:22;;;;;;;10.35;6.88;;;;;;;;;;5081455;28;20071;-64
2022/08/14 08:27:56;;;;;;;10.43;7.35;;;;;;;;;;5085860;28;20119;-65
2022/08/14 08:30:23;;;;;;;8.93;6.35;;;;;;;;;;5072696;28;20051;-64
2022/08/14 08:32:51;;;;;;;8.18;6.05;;;;;;;;;;5078616;28;20089;-64
2022/08/14 08:35:19;;;;;;;6.75;5.82;;;;;;;;;;5083679;28;20111;-65
2022/08/14 08:37:47;;;;;;;8.00;6.68;;;;;;;;;;5074152;28;20039;-64
2022/08/14 08:40:24;;;;;;;7.68;6.20;;;;;;;;;;5084692;28;20057;-65
2022/08/14 08:42:50;;;;;;;7.68;6.20;;;;;;;;;;5070184;28;20453;-65
2022/08/14 08:45:17;;;;;;;8.15;5.68;;;;;;;;;;5077704;28;20454;-64
2022/08/14 08:47:43;;;;;;;13.80;7.05;;;;;;;;;;5074513;28;20639;-65
2022/08/14 08:50:22;;;;;;;7.80;6.15;;;;;;;;;;5082631;28;20063;-64
2022/08/14 08:52:49;;;;;;;9.10;6.80;;;;;;;;;;5078397;28;20071;-64
2022/08/14 08:55:16;;;;;;;10.27;6.43;;;;;;;;;;5089775;28;20041;-64
2022/08/14 08:57:43;;;;;;;9.13;6.25;;;;;;;;;;5088975;28;20078;-64
2022/08/14 09:00:14;;;;;;;11.18;6.38;;;;;;;;;;5085137;28;20375;-67
2022/08/14 09:02:43;;;;;;;7.93;6.35;;;;;;;;;;5084114;28;20141;-65
2022/08/14 09:05:09;;;;;;;8.85;5.82;;;;;;;;;;5090309;28;20075;-65
2022/08/14 09:07:35;;;;;;;9.55;6.03;;;;;;;;;;5079529;28;20037;-65
2022/08/14 09:10:01;;;;;;;9.57;6.00;;;;;;;;;;5077656;28;20044;-64
2022/08/14 09:12:28;;;;;;;10.35;5.65;;;;;;;;;;5086025;28;20048;-65
2022/08/14 09:14:55;;;;;;;11.88;5.68;;;;;;;;;;5090305;28;20047;-65
2022/08/14 09:17:22;;;;;;;11.23;6.13;;;;;;;;;;5087531;28;20113;-65
2022/08/14 09:19:48;;;;;;;9.15;6.15;;;;;;;;;;5085430;28;20110;-64
2022/08/14 09:22:15;;;;;;;11.23;6.22;;;;;;;;;;5087390;28;20550;-65
2022/08/14 09:24:46;;;;;;;8.68;5.97;;;;;;;;;;5088102;28;20095;-65
2022/08/14 09:27:12;;;;;;;8.80;5.15;;;;;;;;;;5087657;28;20390;-65
2022/08/14 09:29:40;;;;;;;9.93;5.50;;;;;;;;;;5081214;28;20055;-65
2022/08/14 09:32:07;;;;;;;7.00;5.38;;;;;;;;;;5078820;28;20043;-65
2022/08/14 09:34:35;;;;;;;7.53;5.63;;;;;;;;;;5081080;28;20126;-65
2022/08/14 09:37:02;;;;;;;8.77;5.35;;;;;;;;;;5073973;28;20196;-65
2022/08/14 09:39:39;;;;;;;7.22;5.50;;;;;;;;;;5076035;28;20043;-65
2022/08/14 09:42:15;;;;;;;7.88;5.60;;;;;;;;;;5085206;28;20062;-65
2022/08/14 09:44:44;;;;;;;6.68;5.07;;;;;;;;;;5086597;28;20130;-65
2022/08/14 09:47:11;;;;;;;7.63;5.15;;;;;;;;;;5085032;28;20048;-65
2022/08/14 09:49:38;;;;;;;8.00;4.95;;;;;;;;;;5082188;28;20036;-65
2022/08/14 09:52:05;;;;;;;8.70;4.95;;;;;;;;;;5087134;28;20120;-65
2022/08/14 09:54:37;;;;;;;9.13;4.82;;;;;;;;;;5080145;28;20557;-85
2022/08/14 09:57:05;;;;;;;20.38;5.65;;;;;;;;;;5096341;27;20382;-65
2022/08/14 09:59:39;;;;;;;7.78;4.43;;;;;;;;;;5093368;27;20398;-65
2022/08/14 10:02:18;;;;;;;8.45;4.60;;;;;;;;;;5063702;28;20046;-65
2022/08/14 10:04:45;;;;;;;6.70;4.43;;;;;;;;;;5084857;28;20040;-65
2022/08/14 10:07:11;;;;;;;5.90;4.60;;;;;;;;;;5080783;28;20113;-65
2022/08/14 10:09:49;;;;;;;7.05;4.30;;;;;;;;;;5081925;28;20042;-65
2022/08/14 10:12:15;;;;;;;5.85;3.97;;;;;;;;;;5080251;28;20544;-65
2022/08/14 10:14:43;;;;;;;8.45;4.00;;;;;;;;;;5086364;28;20099;-65
2022/08/14 10:17:10;;;;;;;9.13;3.90;;;;;;;;;;5085670;28;20470;-65
2022/08/14 10:19:47;;;;;;;6.88;4.05;;;;;;;;;;5076281;28;20134;-65
2022/08/14 10:22:13;;;;;;;5.68;3.70;;;;;;;;;;5071677;28;20050;-65
2022/08/14 10:24:43;;;;;;;8.55;4.22;;;;;;;;;;5074755;28;20497;-65
2022/08/14 10:27:17;;;;;;;5.95;3.78;;;;;;;;;;5078075;28;20553;-65
2022/08/14 10:29:44;;;;;;;8.20;3.78;;;;;;;;;;5079842;28;20450;-66
2022/08/14 10:32:12;;;;;;;4.50;3.08;;;;;;;;;;5086894;28;20039;-65
2022/08/14 10:34:39;;;;;;;4.93;3.28;;;;;;;;;;5089714;28;20550;-65
2022/08/14 10:37:09;;;;;;;5.88;3.70;;;;;;;;;;5085553;28;20078;-65
2022/08/14 10:39:36;;;;;;;7.00;3.83;;;;;;;;;;5084716;28;20044;-65
2022/08/14 10:42:06;;;;;;;5.07;3.05;;;;;;;;;;5080140;28;20032;-65
2022/08/14 10:44:35;;;;;;;6.38;2.90;;;;;;;;;;5075224;28;20439;-65
2022/08/14 10:47:08;;;;;;;9.50;4.05;;;;;;;;;;5082480;28;20045;-64
2022/08/14 10:49:36;;;;;;;6.03;3.58;;;;;;;;;;5102866;28;21769;-64
2022/08/14 10:52:08;;;;;;;5.30;3.53;;;;;;;;;;5089835;28;20048;-64
2022/08/14 10:54:34;;;;;;;;;;;;;;;;;;5090755;28;20143;-65
2022/08/14 10:57:11;;;;;;;4.70;3.20;;;;;;;;;;5083321;28;19920;-64
2022/08/14 10:59:46;;;;;;;4.97;3.35;;;;;;;;;;5085181;28;20050;-65
2022/08/14 11:02:19;;;;;;;6.70;3.55;;;;;;;;;;5090222;27;20135;-65
2022/08/14 11:04:46;;;;;;;;;;;;;;;;;;5090579;28;20044;-65
2022/08/14 11:07:14;;;;;;;4.60;2.97;;;;;;;;;;5095269;28;19980;-65
2022/08/14 11:09:52;;;;;;;5.65;3.30;;;;;;;;;;5099219;28;20173;-65
2022/08/14 11:12:18;;;;;;;6.15;3.22;;;;;;;;;;5098361;28;20048;-64
2022/08/14 11:14:51;;;;;;;4.80;3.50;;;;;;;;;;5095821;28;20131;-65
2022/08/14 11:17:18;;;;;;;7.05;3.35;;;;;;;;;;5100082;28;20394;-65
2022/08/14 11:19:44;;;;;;;6.63;3.97;;;;;;;;;;5094968;28;20504;-65
2022/08/14 11:22:11;;;;;;;8.52;3.60;;;;;;;;;;5097111;28;20052;-65
2022/08/14 11:24:39;;;;;;;9.40;3.55;;;;;;;;;;5095370;28;20044;-65
2022/08/14 11:27:05;;;;;;;5.70;3.33;;;;;;;;;;5095134;28;20123;-65
2022/08/14 11:29:31;;;;;;;7.10;3.63;;;;;;;;;;5091286;28;20046;-65
2022/08/14 11:31:58;;;;;;;6.38;3.13;;;;;;;;;;5090505;28;20161;-65
2022/08/14 11:34:25;;;;;;;5.63;3.30;;;;;;;;;;5093030;28;20123;-65
2022/08/14 11:36:51;;;;;;;4.45;3.40;;;;;;;;;;5091069;28;20039;-64
2022/08/14 11:39:19;;;;;;;5.97;3.33;;;;;;;;;;5092442;28;20040;-65
2022/08/14 11:41:45;;;;;;;6.80;3.42;;;;;;;;;;5094152;28;20036;-65
2022/08/14 11:44:11;;;;;;;8.40;3.40;;;;;;;;;;5092173;28;20441;-65
2022/08/14 11:46:38;;;;;;;5.15;3.38;;;;;;;;;;5086993;28;20055;-65
2022/08/14 11:49:04;;;;;;;4.53;3.25;;;;;;;;;;5098008;28;20046;-65
2022/08/14 11:51:31;;;;;;;4.68;3.50;;;;;;;;;;5096127;28;20439;-66
2022/08/14 11:54:01;;;;;;;7.97;3.55;;;;;;;;;;5090105;28;20115;-65
2022/08/14 11:56:36;;;;;;;5.95;3.38;;;;;;;;;;5109369;27;20361;-65
2022/08/14 11:59:03;;;;;;;4.60;3.08;;;;;;;;;;5088057;28;20040;-65
2022/08/14 12:01:30;;;;;;;5.63;3.22;;;;;;;;;;5070509;28;20135;-65
2022/08/14 12:04:07;;;;;;;4.78;3.15;;;;;;;;;;5091354;28;20119;-66
2022/08/14 12:06:43;;;;;;;7.70;3.22;;;;;;;;;;5100265;28;20450;-66
2022/08/14 12:09:10;;;;;;;5.60;3.10;;;;;;;;;;5092484;28;20040;-65
2022/08/14 12:11:38;;;;;;;3.90;2.80;;;;;;;;;;5093596;28;20195;-65
2022/08/14 12:14:08;;;;;;;5.60;3.03;;;;;;;;;;5095715;28;20116;-65
2022/08/14 12:16:35;;;;;;;5.35;3.33;;;;;;;;;;5091111;28;20055;-66
2022/08/14 12:19:01;;;;;;;4.35;3.08;;;;;;;;;;5087347;28;20346;-65
2022/08/14 12:21:28;;;;;;;5.10;3.05;;;;;;;;;;5088223;28;20040;-66
2022/08/14 12:24:05;;;;;;;5.65;2.85;;;;;;;;;;5083663;28;20048;-71
2022/08/14 12:26:31;;;;;;;4.78;2.83;;;;;;;;;;5082679;28;20035;-65
2022/08/14 12:29:07;;;;;;;4.07;3.20;;;;;;;;;;5090946;28;20039;-65
2022/08/14 12:31:34;;;;;;;10.73;3.00;;;;;;;;;;5088152;28;20040;-65
2022/08/14 12:34:02;;;;;;;6.20;3.17;;;;;;;;;;5086212;28;20045;-65
2022/08/14 12:36:29;;;;;;;5.63;2.90;;;;;;;;;;5084274;28;20094;-65
2022/08/14 12:38:56;;;;;;;5.45;2.90;;;;;;;;;;5075511;28;20445;-65
2022/08/14 12:41:25;;;;;;;6.88;2.90;;;;;;;;;;5091864;28;20447;-65
2022/08/14 12:43:53;;;;;;;4.97;2.75;;;;;;;;;;5083999;28;20100;-65
2022/08/14 12:46:22;;;;;;;4.63;2.85;;;;;;;;;;5082815;28;20051;-65
2022/08/14 12:48:49;;;;;;;5.15;2.38;;;;;;;;;;5098370;28;20403;-65
2022/08/14 12:51:19;;;;;;;3.95;2.72;;;;;;;;;;5081719;28;20112;-65
2022/08/14 12:53:45;;;;;;;5.57;2.55;;;;;;;;;;5081995;28;20143;-65
2022/08/14 12:56:12;;;;;;;3.50;2.38;;;;;;;;;;5080851;28;20066;-65
2022/08/14 12:58:47;;;;;;;6.55;2.45;;;;;;;;;;5079417;28;20052;-65
2022/08/14 13:01:18;;;;;;;4.82;2.25;;;;;;;;;;5079718;28;20052;-65
2022/08/14 13:03:46;;;;;;;4.63;2.50;;;;;;;;;;5072981;28;20055;-65
2022/08/14 13:06:13;;;;;;;3.85;2.30;;;;;;;;;;5078157;28;20122;-65
2022/08/14 13:08:41;;;;;;;5.28;2.67;;;;;;;;;;5091140;28;20130;-66
2022/08/14 13:11:11;;;;;;;3.88;2.25;;;;;;;;;;5086416;28;20068;-65
2022/08/14 13:13:39;;;;;;;4.82;2.63;;;;;;;;;;5088209;28;20064;-65
2022/08/14 13:16:05;;;;;;;6.25;3.00;;;;;;;;;;5080554;28;20115;-65
2022/08/14 13:18:32;;;;;;;4.43;2.72;;;;;;;;;;5082565;28;20098;-65
2022/08/14 13:21:00;;;;;;;6.60;2.95;;;;;;;;;;5080139;28;20055;-65
2022/08/14 13:23:27;;;;;;;3.47;2.58;;;;;;;;;;5088535;28;20394;-65
2022/08/14 13:25:54;;;;;;;8.55;3.50;;;;;;;;;;5089872;28;20040;-65
2022/08/14 13:28:25;;;;;;;3.67;2.80;;;;;;;;;;5092653;28;20083;-65
2022/08/14 13:30:52;;;;;;;7.47;2.72;;;;;;;;;;5081047;28;20096;-65
2022/08/14 13:33:20;;;;;;;5.53;2.97;;;;;;;;;;5083336;28;20535;-65
2022/08/14 13:35:48;;;;;;;5.85;3.03;;;;;;;;;;5068835;28;20437;-65
2022/08/14 13:38:22;;;;;;;7.47;3.30;;;;;;;;;;5088194;28;20042;-65
2022/08/14 13:40:54;;;;;;;6.72;3.00;;;;;;;;;;5076485;28;20037;-65
2022/08/14 13:43:23;;;;;;;5.47;3.17;;;;;;;;;;5098771;27;20051;-65
2022/08/14 13:45:50;;;;;;;6.15;3.13;;;;;;;;;;5099315;28;20367;-65
2022/08/14 13:48:17;;;;;;;5.10;3.28;;;;;;;;;;5085912;28;20051;-65
2022/08/14 13:50:44;;;;;;;5.22;3.30;;;;;;;;;;5078683;28;20403;-65
2022/08/14 13:53:13;;;;;;;6.43;3.58;;;;;;;;;;5085411;28;20039;-65
2022/08/14 13:55:40;;;;;;;4.65;3.40;;;;;;;;;;5089566;28;20115;-65
2022/08/14 13:58:06;;;;;;;4.68;3.35;;;;;;;;;;5086861;28;20094;-65
2022/08/14 14:00:35;;;;;;;4.85;3.03;;;;;;;;;;5090508;28;20040;-65
2022/08/14 14:03:04;;;;;;;9.38;3.72;;;;;;;;;;5086604;28;20158;-65
2022/08/14 14:05:30;;;;;;;5.30;3.60;;;;;;;;;;5089815;28;20470;-65
2022/08/14 14:07:57;;;;;;;6.15;4.53;;;;;;;;;;5090901;28;20131;-65
2022/08/14 14:10:24;;;;;;;7.22;4.30;;;;;;;;;;5092406;28;20089;-65
2022/08/14 14:12:51;;;;;;;7.65;3.78;;;;;;;;;;5091044;28;20063;-65
2022/08/14 14:15:19;;;;;;;4.95;3.80;;;;;;;;;;5087373;28;20052;-65
2022/08/14 14:17:46;;;;;;;5.00;3.60;;;;;;;;;;5091442;28;20032;-65
2022/08/14 14:20:13;;;;;;;4.70;3.75;;;;;;;;;;5082545;28;20102;-65
2022/08/14 14:22:41;;;;;;;6.50;4.00;;;;;;;;;;5095592;28;20552;-65
2022/08/14 14:25:08;;;;;;;4.47;3.40;;;;;;;;;;5083790;28;20447;-65
2022/08/14 14:27:36;;;;;;;7.07;4.20;;;;;;;;;;5096531;28;20040;-65
2022/08/14 14:30:03;;;;;;;6.20;3.88;;;;;;;;;;5088259;28;20044;-65
2022/08/14 14:32:30;;;;;;;6.47;3.85;;;;;;;;;;5089196;28;20036;-65
2022/08/14 14:35:00;;;;;;;7.05;3.75;;;;;;;;;;5096483;28;20040;-65
2022/08/14 14:37:27;;;;;;;5.95;4.35;;;;;;;;;;5097559;28;20092;-65
2022/08/14 14:39:55;;;;;;;7.18;3.47;;;;;;;;;;5085410;28;20071;-65
2022/08/14 14:42:24;;;;;;;6.10;3.83;;;;;;;;;;5084447;28;20032;-65
2022/08/14 14:44:54;;;;;;;6.07;3.85;;;;;;;;;;5088990;28;20490;-65
2022/08/14 14:47:21;;;;;;;5.35;3.70;;;;;;;;;;5097000;28;20133;-65
2022/08/14 14:49:48;;;;;;;12.88;4.18;;;;;;;;;;5098657;28;20083;-65
2022/08/14 14:52:19;;;;;;;5.95;3.88;;;;;;;;;;5093900;28;20506;-65